Time;durP1;ratioP1;P1;durP2;ratioP2;P2;SDS_P1;SDS_P2;PMS_P1;PMS_P2;Temp;Humidity;BMP_temperature;BMP_pressure;BME280_temperature;BME280_humidity;BME280_pressure;Samples;Min_cycle;Max_cycle;Signal;HPM_P1;HPM_P2
2024/01/12 00:01:00;;;;;;;3.42;2.75;;;7.50;59.80;;;;;;5006775;28;20068;-79
2024/01/12 00:03:26;;;;;;;5.50;2.90;;;7.50;59.80;;;;;;4998027;28;20029;-76
2024/01/12 00:05:52;;;;;;;4.00;2.80;;;7.50;59.80;;;;;;4998345;28;20393;-79
2024/01/12 00:08:18;;;;;;;4.85;3.30;;;7.50;59.70;;;;;;5002946;28;20041;-78
2024/01/12 00:10:44;;;;;;;5.18;2.97;;;7.50;59.80;;;;;;5005470;28;20112;-75
2024/01/12 00:13:11;;;;;;;4.95;2.63;;;7.50;59.70;;;;;;4998109;28;20410;-82
2024/01/12 00:15:37;;;;;;;4.00;3.00;;;7.50;59.70;;;;;;4992900;28;20030;-79
2024/01/12 00:18:03;;;;;;;4.00;3.45;;;7.50;59.70;;;;;;4991655;28;20493;-79
2024/01/12 00:20:29;;;;;;;6.20;2.92;;;7.50;59.60;;;;;;4995344;28;20034;-77
2024/01/12 00:22:57;;;;;;;5.80;2.70;;;7.50;59.70;;;;;;5004650;28;20399;-80
2024/01/12 00:25:23;;;;;;;5.68;2.65;;;7.50;59.70;;;;;;4994370;28;20095;-79
2024/01/12 00:27:49;;;;;;;3.47;2.60;;;7.50;59.60;;;;;;4996657;28;20501;-76
2024/01/12 00:30:16;;;;;;;2.63;2.40;;;7.50;59.60;;;;;;4995355;28;20141;-75
2024/01/12 00:32:42;;;;;;;4.80;2.80;;;7.50;59.60;;;;;;4998006;28;20023;-81
2024/01/12 00:35:08;;;;;;;3.50;2.45;;;7.60;59.80;;;;;;5015592;28;20125;-82
2024/01/12 00:37:36;;;;;;;5.85;2.55;;;7.50;59.60;;;;;;5000107;28;20045;-78
2024/01/12 00:40:03;;;;;;;3.10;2.40;;;7.50;59.70;;;;;;5013156;28;20034;-76
2024/01/12 00:42:29;;;;;;;3.97;2.63;;;7.50;59.60;;;;;;4997569;28;20036;-76
2024/01/12 00:44:55;;;;;;;3.00;2.03;;;7.50;59.60;;;;;;5001308;28;21061;-79
2024/01/12 00:47:21;;;;;;;2.38;2.05;;;7.50;59.60;;;;;;5001615;28;20029;-80
2024/01/12 00:49:46;;;;;;;3.63;1.98;;;7.50;59.70;;;;;;5000457;28;20030;-77
2024/01/12 00:52:13;;;;;;;4.20;2.10;;;7.50;59.70;;;;;;4997288;28;20556;-76
2024/01/12 00:54:40;;;;;;;3.65;1.98;;;7.50;59.70;;;;;;5001844;28;20026;-78
2024/01/12 00:57:06;;;;;;;6.75;2.55;;;7.60;59.90;;;;;;5001912;28;20062;-81
2024/01/12 00:59:32;;;;;;;6.30;2.22;;;7.50;59.60;;;;;;5001852;28;20597;-76
2024/01/12 01:01:59;;;;;;;6.70;2.63;;;7.50;59.60;;;;;;5001130;28;20088;-77
2024/01/12 01:04:25;;;;;;;2.53;1.80;;;7.50;59.60;;;;;;5012557;28;20041;-78
2024/01/12 01:06:52;;;;;;;3.22;2.05;;;7.60;59.80;;;;;;5006882;28;20033;-76
2024/01/12 01:09:19;;;;;;;3.75;1.80;;;7.50;59.60;;;;;;5019217;28;20025;-80
2024/01/12 01:11:45;;;;;;;5.30;2.35;;;7.50;59.60;;;;;;5012444;28;20088;-76
2024/01/12 01:14:12;;;;;;;2.80;1.90;;;7.50;59.60;;;;;;5000135;28;20032;-77
2024/01/12 01:16:38;;;;;;;3.58;1.95;;;7.50;59.70;;;;;;5001643;28;20021;-77
2024/01/12 01:19:04;;;;;;;2.92;2.42;;;7.50;59.60;;;;;;5008817;28;20026;-76
2024/01/12 01:21:31;;;;;;;2.65;1.92;;;7.50;59.60;;;;;;5000414;28;20037;-78
2024/01/12 01:23:57;;;;;;;3.30;2.30;;;7.50;59.60;;;;;;5012242;28;20131;-80
2024/01/12 01:26:23;;;;;;;4.43;2.10;;;7.50;59.60;;;;;;5017570;28;20130;-81
2024/01/12 01:28:50;;;;;;;2.83;1.80;;;7.50;59.60;;;;;;4998044;28;20022;-77
2024/01/12 01:31:16;;;;;;;6.32;2.40;;;7.50;59.60;;;;;;4996361;28;20295;-76
2024/01/12 01:33:41;;;;;;;3.80;1.98;;;7.50;59.60;;;;;;4997959;28;20022;-77
2024/01/12 01:36:08;;;;;;;3.25;2.00;;;7.50;59.60;;;;;;4999715;28;20041;-83
2024/01/12 01:38:34;;;;;;;4.68;2.30;;;7.50;59.60;;;;;;5002546;28;20026;-79
2024/01/12 01:41:01;;;;;;;3.63;2.20;;;7.50;59.60;;;;;;4997696;28;20517;-80
2024/01/12 01:43:27;;;;;;;3.83;2.35;;;7.50;59.70;;;;;;5000359;28;20026;-76
2024/01/12 01:45:53;;;;;;;4.30;3.42;;;7.60;59.80;;;;;;4999107;28;20026;-81
2024/01/12 01:48:19;;;;;;;3.13;2.58;;;7.50;60.20;;;;;;4978987;28;20438;-83
2024/01/12 01:50:45;;;;;;;3.63;2.17;;;7.50;59.60;;;;;;4995399;28;20239;-78
2024/01/12 01:53:12;;;;;;;5.40;2.83;;;7.50;59.60;;;;;;4998219;28;20108;-77
2024/01/12 01:55:38;;;;;;;3.78;2.80;;;7.50;59.60;;;;;;4996232;28;20044;-76
2024/01/12 01:58:04;;;;;;;4.95;2.33;;;7.50;59.60;;;;;;4997726;28;20830;-76
2024/01/12 02:00:31;;;;;;;4.82;3.08;;;7.50;60.20;;;;;;4996079;28;20030;-86
2024/01/12 02:03:00;;;;;;;6.35;2.63;;;7.60;59.80;;;;;;4993928;28;20023;-79
2024/01/12 02:05:28;;;;;;;4.95;2.65;;;7.50;59.60;;;;;;4996504;28;20033;-80
2024/01/12 02:07:55;;;;;;;4.68;2.80;;;7.50;59.60;;;;;;5010983;28;20022;-75
2024/01/12 02:10:22;;;;;;;3.22;2.67;;;7.50;60.10;;;;;;5009692;28;20704;-76
2024/01/12 02:12:49;;;;;;;3.70;2.67;;;7.50;59.60;;;;;;4996615;28;20036;-77
2024/01/12 02:15:18;;;;;;;4.68;2.75;;;7.50;59.60;;;;;;4993243;28;20030;-76
2024/01/12 02:17:47;;;;;;;5.82;2.70;;;7.50;59.60;;;;;;4994547;28;20380;-77
2024/01/12 02:20:13;;;;;;;4.93;2.78;;;7.50;59.60;;;;;;4991078;28;20042;-76
2024/01/12 02:22:39;;;;;;;4.32;2.70;;;7.50;59.70;;;;;;4991583;28;20042;-75
2024/01/12 02:25:07;;;;;;;3.42;2.65;;;7.50;59.70;;;;;;4993900;28;20480;-77
2024/01/12 02:27:34;;;;;;;5.57;4.25;;;7.50;59.70;;;;;;4995350;28;20026;-77
2024/01/12 02:30:03;;;;;;;4.15;3.25;;;7.50;59.70;;;;;;4994873;28;20045;-76
2024/01/12 02:32:29;;;;;;;4.18;2.55;;;7.50;59.70;;;;;;4992040;28;20485;-79
2024/01/12 02:34:55;;;;;;;4.32;2.90;;;7.50;59.70;;;;;;4994883;28;20568;-75
2024/01/12 02:37:22;;;;;;;5.57;3.58;;;7.50;59.70;;;;;;4996453;28;20061;-77
2024/01/12 02:39:50;;;;;;;5.20;3.20;;;7.50;59.70;;;;;;5000569;28;20029;-79
2024/01/12 02:42:19;;;;;;;4.60;3.05;;;7.50;59.70;;;;;;4999121;28;20133;-79
2024/01/12 02:44:46;;;;;;;4.20;3.15;;;7.50;59.70;;;;;;5003113;28;20116;-79
2024/01/12 02:47:13;;;;;;;4.43;3.42;;;7.50;59.70;;;;;;5027834;23;20045;-89
2024/01/12 02:49:43;;;;;;;7.63;3.20;;;7.50;59.70;;;;;;5016381;28;20487;-86
2024/01/12 02:52:10;;;;;;;5.00;3.47;;;7.50;59.70;;;;;;5007673;28;20516;-83
2024/01/12 02:54:35;;;;;;;5.43;3.17;;;7.50;59.70;;;;;;4982020;28;20160;-83
2024/01/12 02:57:04;;;;;;;3.50;3.10;;;7.50;59.70;;;;;;5003411;28;20086;-93
2024/01/12 02:59:35;;;;;;;3.95;3.15;;;7.50;59.70;;;;;;5009767;28;20565;-95
2024/01/12 03:02:01;;;;;;;7.53;4.35;;;7.50;59.70;;;;;;5010652;28;20092;-93
2024/01/12 03:04:31;;;;;;;6.05;3.33;;;7.50;59.70;;;;;;5008132;28;20025;-93
2024/01/12 03:06:57;;;;;;;5.25;3.70;;;7.50;59.70;;;;;;5007812;28;20026;-92
2024/01/12 03:09:24;;;;;;;7.90;3.78;;;7.50;59.70;;;;;;4987216;28;20100;-92
2024/01/12 03:11:51;;;;;;;4.57;3.80;;;7.50;59.70;;;;;;5009030;28;20030;-91
2024/01/12 03:14:21;;;;;;;6.32;3.85;;;7.50;59.80;;;;;;5008986;28;20100;-91
2024/01/12 03:16:51;;;;;;;6.03;3.47;;;7.50;59.80;;;;;;4991936;28;20034;-92
2024/01/12 03:19:17;;;;;;;5.35;3.90;;;7.50;59.80;;;;;;5010220;28;20065;-94
2024/01/12 03:21:43;;;;;;;5.00;3.45;;;7.50;59.80;;;;;;5002315;28;20044;-96
2024/01/12 03:24:09;;;;;;;5.63;4.95;;;7.50;60.30;;;;;;5025280;28;20041;-86
2024/01/12 03:26:39;;;;;;;4.90;4.40;;;7.50;59.80;;;;;;5019015;28;20879;-84
2024/01/12 03:29:06;;;;;;;5.82;3.80;;;7.50;59.80;;;;;;4982050;28;20037;-84
2024/01/12 03:31:33;;;;;;;5.68;3.67;;;7.50;59.80;;;;;;4996182;28;20033;-84
2024/01/12 03:33:59;;;;;;;6.32;3.97;;;7.50;59.80;;;;;;5001566;28;20033;-84
2024/01/12 03:36:27;;;;;;;6.45;4.05;;;7.50;59.80;;;;;;4998978;28;20026;-84
2024/01/12 03:38:54;;;;;;;6.03;3.45;;;7.50;59.90;;;;;;5001251;28;20348;-84
2024/01/12 03:41:21;;;;;;;5.47;4.63;;;7.50;59.80;;;;;;5004638;28;20030;-85
2024/01/12 03:43:48;;;;;;;4.90;3.80;;;7.50;59.90;;;;;;5001498;28;20053;-84
2024/01/12 03:46:15;;;;;;;4.03;3.47;;;7.50;59.90;;;;;;5001737;28;20038;-84
2024/01/12 03:48:42;;;;;;;6.68;4.13;;;7.50;59.90;;;;;;5002019;28;20106;-84
2024/01/12 03:51:08;;;;;;;6.47;3.72;;;7.50;59.90;;;;;;4980619;28;20700;-84
2024/01/12 03:53:34;;;;;;;8.00;4.93;;;7.50;59.90;;;;;;4997667;28;20025;-83
2024/01/12 03:56:00;;;;;;;4.22;3.60;;;7.50;59.90;;;;;;5008057;28;20117;-85
2024/01/12 03:58:27;;;;;;;5.93;3.20;;;7.50;59.90;;;;;;5005706;28;20114;-86
2024/01/12 04:00:54;;;;;;;4.75;3.95;;;7.50;59.90;;;;;;5005124;28;20110;-85
2024/01/12 04:03:19;;;;;;;6.05;3.35;;;7.50;59.90;;;;;;5001064;28;20361;-86
2024/01/12 04:05:45;;;;;;;4.57;3.70;;;7.50;59.90;;;;;;5007046;28;20041;-83
2024/01/12 04:08:11;;;;;;;6.22;4.28;;;7.50;59.90;;;;;;5006172;28;20026;-86
2024/01/12 04:10:37;;;;;;;7.68;3.60;;;7.50;59.90;;;;;;5006325;28;20038;-84
2024/01/12 04:13:03;;;;;;;5.43;3.70;;;7.50;60.00;;;;;;5010909;28;20104;-83
2024/01/12 04:15:30;;;;;;;5.82;3.22;;;7.50;59.90;;;;;;4986975;28;20030;-84
2024/01/12 04:17:56;;;;;;;6.10;4.10;;;7.50;60.00;;;;;;4990508;28;20029;-84
2024/01/12 04:20:22;;;;;;;6.10;3.53;;;7.50;60.00;;;;;;4998789;28;20045;-84
2024/01/12 04:22:48;;;;;;;5.57;3.53;;;7.50;60.00;;;;;;5021588;28;20041;-84
2024/01/12 04:25:15;;;;;;;8.00;4.13;;;7.50;60.00;;;;;;5001796;28;20401;-83
2024/01/12 04:27:41;;;;;;;7.55;3.67;;;7.50;60.00;;;;;;5004040;28;20384;-85
2024/01/12 04:30:09;;;;;;;6.88;3.38;;;7.50;60.50;;;;;;4987199;28;20048;-85
2024/01/12 04:32:35;;;;;;;7.53;3.35;;;7.50;60.00;;;;;;5003732;28;20167;-84
2024/01/12 04:35:01;;;;;;;9.07;3.20;;;7.50;60.00;;;;;;5001413;28;20041;-85
2024/01/12 04:37:28;;;;;;;5.95;3.35;;;7.50;60.00;;;;;;5016731;28;20025;-84
2024/01/12 04:39:54;;;;;;;6.47;3.53;;;7.50;60.00;;;;;;5003107;28;20080;-81
2024/01/12 04:42:20;;;;;;;5.13;3.90;;;7.50;60.00;;;;;;5000035;28;20144;-84
2024/01/12 04:44:46;;;;;;;6.38;3.30;;;7.50;60.00;;;;;;4995439;28;20599;-84
2024/01/12 04:47:12;;;;;;;5.18;3.30;;;7.50;60.00;;;;;;5022289;28;20088;-84
2024/01/12 04:49:38;;;;;;;7.55;3.33;;;7.50;60.00;;;;;;4995949;28;20039;-84
2024/01/12 04:52:05;;;;;;;5.88;3.08;;;7.50;60.00;;;;;;5003438;28;20120;-83
2024/01/12 04:54:31;;;;;;;5.47;2.83;;;7.50;60.10;;;;;;4999033;28;20030;-86
2024/01/12 04:56:57;;;;;;;7.00;3.85;;;7.50;60.00;;;;;;5015258;28;20105;-84
2024/01/12 04:59:24;;;;;;;7.00;3.45;;;7.50;60.00;;;;;;4989240;28;20031;-84
2024/01/12 05:01:51;;;;;;;3.95;2.97;;;7.50;60.10;;;;;;5018883;28;20448;-85
2024/01/12 05:04:17;;;;;;;5.53;3.20;;;7.50;60.10;;;;;;5014177;28;20038;-84
2024/01/12 05:06:43;;;;;;;7.07;3.20;;;7.50;60.10;;;;;;5023076;28;20021;-85
2024/01/12 05:09:09;;;;;;;7.53;3.72;;;7.50;60.10;;;;;;5020992;28;20053;-84
2024/01/12 05:11:36;;;;;;;7.50;4.05;;;7.50;60.10;;;;;;5044124;28;20053;-84
2024/01/12 05:14:02;;;;;;;6.53;3.25;;;7.50;60.10;;;;;;5021932;28;20025;-85
2024/01/12 05:16:28;;;;;;;4.30;3.17;;;7.50;60.10;;;;;;5035776;28;20110;-85
2024/01/12 05:18:54;;;;;;;6.20;2.97;;;7.50;60.10;;;;;;5037949;28;20136;-84
2024/01/12 05:21:21;;;;;;;4.47;3.35;;;7.50;60.10;;;;;;5024870;28;20045;-84
2024/01/12 05:23:47;;;;;;;5.93;2.88;;;7.50;60.10;;;;;;5010813;28;20031;-83
2024/01/12 05:26:13;;;;;;;6.10;3.42;;;7.50;60.10;;;;;;5011321;28;20437;-84
2024/01/12 05:28:39;;;;;;;5.68;3.30;;;7.50;60.10;;;;;;5004157;28;20133;-84
2024/01/12 05:31:08;;;;;;;7.65;3.58;;;7.50;60.10;;;;;;4977637;28;20125;-84
2024/01/12 05:33:34;;;;;;;4.63;3.53;;;7.50;60.10;;;;;;5015638;28;20087;-84
2024/01/12 05:35:59;;;;;;;5.82;3.22;;;7.50;60.10;;;;;;4985674;28;20334;-85
2024/01/12 05:38:25;;;;;;;7.22;3.53;;;7.50;60.10;;;;;;5021250;28;20111;-85
2024/01/12 05:40:51;;;;;;;4.82;2.97;;;7.50;60.10;;;;;;5010783;28;20030;-85
2024/01/12 05:43:18;;;;;;;4.90;3.35;;;7.50;60.10;;;;;;4991029;28;20042;-85
2024/01/12 05:45:44;;;;;;;4.57;2.85;;;7.50;60.10;;;;;;5005311;28;20040;-84
2024/01/12 05:48:11;;;;;;;3.80;2.92;;;7.50;60.10;;;;;;5002075;28;20400;-85
2024/01/12 05:50:37;;;;;;;5.93;3.17;;;7.50;60.10;;;;;;4998392;28;20352;-85
2024/01/12 05:53:05;;;;;;;5.18;3.10;;;7.50;60.10;;;;;;5021139;28;20149;-95
2024/01/12 05:55:31;;;;;;;4.82;3.55;;;7.50;60.10;;;;;;5023389;28;20045;-96
2024/01/12 05:57:57;;;;;;;6.22;3.17;;;7.50;60.10;;;;;;5008240;28;20081;-94
2024/01/12 06:00:24;;;;;;;5.70;3.42;;;7.50;60.10;;;;;;5003264;28;20066;-96
2024/01/12 06:02:50;;;;;;;6.05;3.30;;;7.50;60.10;;;;;;5011764;28;20444;-94
2024/01/12 06:05:22;;;;;;;7.45;3.40;;;7.50;60.10;;;;;;5006891;28;20068;-95
2024/01/12 06:07:48;;;;;;;5.97;3.08;;;7.50;60.10;;;;;;5025226;28;20038;-96
2024/01/12 06:10:15;;;;;;;8.95;3.67;;;7.50;60.10;;;;;;5014030;28;20137;-96
2024/01/12 06:12:40;;;;;;;6.65;3.60;;;7.50;60.10;;;;;;5006611;28;20573;-95
2024/01/12 06:15:07;;;;;;;5.93;3.70;;;7.50;60.10;;;;;;4997569;28;20365;-94
2024/01/12 06:17:32;;;;;;;5.55;3.33;;;7.50;60.10;;;;;;5006897;28;20034;-94
2024/01/12 06:20:36;;;;;;;7.82;3.38;;;7.50;60.10;;;;;;5007303;28;20041;-96
2024/01/12 06:23:05;;;;;;;5.88;3.70;;;7.50;60.10;;;;;;5034898;28;20091;-92
2024/01/12 06:25:36;;;;;;;11.77;5.53;;;7.50;60.10;;;;;;5002925;28;20041;-83
2024/01/12 06:28:06;;;;;;;11.98;4.57;;;7.50;60.10;;;;;;5013215;28;20038;-88
2024/01/12 06:30:32;;;;;;;5.70;3.42;;;7.50;60.10;;;;;;5010812;28;20034;-84
2024/01/12 06:33:00;;;;;;;6.93;3.47;;;7.50;60.10;;;;;;5013832;28;20030;-85
2024/01/12 06:35:29;;;;;;;6.10;3.72;;;7.50;60.40;;;;;;5016687;28;20465;-88
2024/01/12 06:37:57;;;;;;;8.27;3.80;;;7.60;60.70;;;;;;5032264;28;20037;-92
2024/01/12 06:40:23;;;;;;;8.73;3.28;;;7.60;60.70;;;;;;5031132;28;20033;-96
2024/01/12 06:42:49;;;;;;;100.65;23.65;;;7.60;60.80;;;;;;5026345;28;20040;-96
2024/01/12 06:45:20;;;;;;;68.65;19.48;;;7.70;61.10;;;;;;5019981;28;20026;-92
2024/01/12 06:47:46;;;;;;;48.97;13.27;;;7.70;61.40;;;;;;5009632;28;20065;-86
2024/01/12 06:50:14;;;;;;;49.53;12.90;;;7.70;61.50;;;;;;5018327;28;20084;-93
2024/01/12 06:52:43;;;;;;;38.58;10.75;;;7.80;61.80;;;;;;5035553;28;20037;-94
2024/01/12 06:55:11;;;;;;;48.05;12.38;;;7.80;61.90;;;;;;5031482;28;20041;-83
2024/01/12 06:57:48;;;;;;;53.95;15.05;;;7.80;61.90;;;;;;5022232;28;20564;-96
2024/01/12 07:00:15;;;;;;;50.83;13.55;;;7.80;62.10;;;;;;5035555;28;20040;-91
2024/01/12 07:02:41;;;;;;;45.35;12.07;;;7.90;62.40;;;;;;5022412;28;20044;-93
2024/01/12 07:05:07;;;;;;;43.10;11.90;;;7.90;62.50;;;;;;5023196;28;20026;-92
2024/01/12 07:07:33;;;;;;;36.00;11.07;;;7.90;62.70;;;;;;5001404;28;20050;-93
2024/01/12 07:10:02;;;;;;;28.08;8.98;;;8.00;63.10;;;;;;5001213;28;20029;-92
2024/01/12 07:12:34;;;;;;;26.67;10.43;;;8.00;63.20;;;;;;4998948;28;20048;-93
2024/01/12 07:15:00;;;;;;;29.38;8.32;;;8.00;63.20;;;;;;5004712;28;20034;-92
2024/01/12 07:17:26;;;;;;;27.23;8.02;;;8.00;63.20;;;;;;5006811;28;20029;-93
2024/01/12 07:19:52;;;;;;;23.42;7.78;;;8.00;63.20;;;;;;5006365;28;20411;-93
2024/01/12 07:22:18;;;;;;;24.38;9.15;;;8.00;63.20;;;;;;4982273;28;20275;-93
2024/01/12 07:24:44;;;;;;;26.40;7.53;;;8.00;63.20;;;;;;4981744;28;20038;-89
2024/01/12 07:27:10;;;;;;;21.48;6.90;;;8.00;63.20;;;;;;4983370;28;20400;-92
2024/01/12 07:29:37;;;;;;;21.05;6.57;;;8.00;63.10;;;;;;5009352;28;20025;-92
2024/01/12 07:32:04;;;;;;;13.07;5.65;;;7.90;62.90;;;;;;4980387;28;20172;-93
2024/01/12 07:34:31;;;;;;;16.90;6.68;;;7.90;62.90;;;;;;4984801;28;20517;-96
2024/01/12 07:36:58;;;;;;;18.45;6.30;;;7.90;62.90;;;;;;4971566;28;20068;-94
2024/01/12 07:39:24;;;;;;;14.43;6.30;;;7.90;62.80;;;;;;4986001;28;20113;-91
2024/01/12 07:41:50;;;;;;;13.70;6.05;;;7.90;62.80;;;;;;5000112;28;20034;-90
2024/01/12 07:44:16;;;;;;;14.20;5.68;;;7.90;62.80;;;;;;4978997;28;20346;-91
2024/01/12 07:46:43;;;;;;;10.85;4.90;;;7.90;62.70;;;;;;5013083;28;20062;-93
2024/01/12 07:49:33;;;;;;;13.45;5.65;;;7.90;62.70;;;;;;5016332;28;20026;-78
2024/01/12 07:51:59;;;;;;;11.30;5.35;;;7.90;62.60;;;;;;5042064;23;20048;-73
2024/01/12 07:54:25;;;;;;;12.63;5.68;;;7.90;62.60;;;;;;5028203;28;20029;-75
2024/01/12 07:56:50;;;;;;;9.35;5.50;;;7.90;62.50;;;;;;5030355;28;20032;-73
2024/01/12 07:59:16;;;;;;;11.77;5.18;;;7.90;62.40;;;;;;5034909;28;20438;-75
2024/01/12 08:01:43;;;;;;;11.88;4.72;;;7.90;62.40;;;;;;5032124;28;20033;-76
2024/01/12 08:04:09;;;;;;;9.55;4.43;;;7.90;62.30;;;;;;5021393;28;20034;-73
2024/01/12 08:06:35;;;;;;;10.35;4.95;;;7.90;62.30;;;;;;5001341;28;20492;-77
2024/01/12 08:09:01;;;;;;;11.40;4.72;;;7.90;62.30;;;;;;5008345;28;20084;-76
2024/01/12 08:11:27;;;;;;;15.05;5.30;;;7.80;62.00;;;;;;4997366;28;20313;-76
2024/01/12 08:13:54;;;;;;;11.60;5.20;;;7.90;62.20;;;;;;5001284;28;20037;-75
2024/01/12 08:16:21;;;;;;;9.75;5.78;;;7.80;62.00;;;;;;5028170;28;20048;-76
2024/01/12 08:18:47;;;;;;;10.68;5.35;;;7.80;61.90;;;;;;5025364;28;20046;-76
2024/01/12 08:21:13;;;;;;;8.60;5.20;;;7.80;61.90;;;;;;5020205;28;20581;-71
2024/01/12 08:23:39;;;;;;;10.70;5.50;;;7.80;61.90;;;;;;5012857;28;20041;-73
2024/01/12 08:26:05;;;;;;;12.02;4.85;;;7.80;61.80;;;;;;5003365;28;20040;-74
2024/01/12 08:28:31;;;;;;;6.45;3.92;;;7.80;61.80;;;;;;5023720;28;20072;-75
2024/01/12 08:30:57;;;;;;;8.15;5.65;;;7.80;61.80;;;;;;5028366;28;20046;-74
2024/01/12 08:33:23;;;;;;;10.55;4.90;;;7.80;61.70;;;;;;5024500;28;20433;-76
2024/01/12 08:35:52;;;;;;;10.38;5.40;;;7.80;61.70;;;;;;5010864;28;20034;-75
2024/01/12 08:38:19;;;;;;;9.75;4.90;;;7.80;61.60;;;;;;5007188;28;20041;-72
2024/01/12 08:40:44;;;;;;;7.35;4.47;;;7.80;61.60;;;;;;5008561;28;20037;-73
2024/01/12 08:43:12;;;;;;;8.73;4.70;;;7.80;61.50;;;;;;5008815;28;20099;-72
2024/01/12 08:45:38;;;;;;;11.18;4.07;;;7.80;61.50;;;;;;5023800;28;20413;-72
2024/01/12 08:48:04;;;;;;;13.90;5.35;;;7.80;61.40;;;;;;5010918;28;20029;-72
2024/01/12 08:50:31;;;;;;;10.15;5.43;;;7.80;61.40;;;;;;5009962;28;20147;-75
2024/01/12 08:52:58;;;;;;;7.13;4.07;;;7.90;61.50;;;;;;5008958;28;20513;-73
2024/01/12 08:55:24;;;;;;;12.75;4.95;;;7.80;61.30;;;;;;5013190;28;20041;-72
2024/01/12 08:57:52;;;;;;;10.43;4.47;;;7.80;61.20;;;;;;5013559;28;20029;-76
2024/01/12 09:00:18;;;;;;;8.13;4.68;;;7.80;61.70;;;;;;5017349;28;20037;-73
2024/01/12 09:02:44;;;;;;;11.60;4.93;;;7.80;61.20;;;;;;5007837;28;20131;-72
2024/01/12 09:05:11;;;;;;;6.55;4.38;;;7.90;61.30;;;;;;5023576;28;20519;-72
2024/01/12 09:07:38;;;;;;;9.77;5.00;;;7.90;61.20;;;;;;5022960;28;20318;-74
2024/01/12 09:10:05;;;;;;;11.20;6.85;;;7.90;61.20;;;;;;5033899;28;20106;-73
2024/01/12 09:12:31;;;;;;;11.68;4.95;;;7.90;61.10;;;;;;5005737;28;20544;-71
2024/01/12 09:14:57;;;;;;;11.65;5.13;;;7.90;61.10;;;;;;5013725;28;20179;-71
2024/01/12 09:17:23;;;;;;;6.60;4.80;;;7.90;61.00;;;;;;5015425;28;20309;-71
2024/01/12 09:19:50;;;;;;;8.95;4.70;;;7.90;61.00;;;;;;5024100;28;20030;-73
2024/01/12 09:22:16;;;;;;;10.35;4.72;;;8.00;61.20;;;;;;5014922;28;20354;-74
2024/01/12 09:24:43;;;;;;;8.77;5.25;;;8.00;61.10;;;;;;5002577;28;20084;-72
2024/01/12 09:27:09;;;;;;;8.82;5.22;;;8.00;61.00;;;;;;5013429;28;20037;-73
2024/01/12 09:29:36;;;;;;;7.43;4.95;;;8.00;60.90;;;;;;5011616;28;20025;-71
2024/01/12 09:32:03;;;;;;;8.05;4.65;;;8.00;60.90;;;;;;5009066;28;20048;-72
2024/01/12 09:34:29;;;;;;;7.50;5.07;;;8.10;61.00;;;;;;5002254;28;20076;-73
2024/01/12 09:36:55;;;;;;;7.47;4.43;;;8.10;60.80;;;;;;5009560;28;20030;-76
2024/01/12 09:39:22;;;;;;;10.00;4.43;;;8.10;60.80;;;;;;5007486;28;20481;-71
2024/01/12 09:41:49;;;;;;;8.93;4.43;;;8.10;60.70;;;;;;5002403;28;20345;-71
2024/01/12 09:44:22;;;;;;;11.02;6.95;;;8.10;60.60;;;;;;5005801;28;20034;-73
2024/01/12 09:46:58;;;;;;;9.35;4.82;;;8.20;60.80;;;;;;4998345;28;20030;-72
2024/01/12 09:49:28;;;;;;;9.20;4.47;;;8.20;60.70;;;;;;5007758;28;20175;-73
2024/01/12 09:51:59;;;;;;;10.07;4.70;;;8.20;60.70;;;;;;4989974;28;20054;-73
2024/01/12 09:54:25;;;;;;;8.70;4.57;;;8.20;60.60;;;;;;5008893;28;20406;-73
2024/01/12 09:56:56;;;;;;;9.00;4.03;;;8.30;60.70;;;;;;5011639;28;20040;-74
2024/01/12 09:59:23;;;;;;;10.23;6.20;;;8.30;60.60;;;;;;5007177;28;20026;-73
2024/01/12 10:01:49;;;;;;;14.07;4.60;;;8.30;60.60;;;;;;5009595;28;20514;-74
2024/01/12 10:04:15;;;;;;;7.38;4.20;;;8.30;60.50;;;;;;5011449;28;20524;-74
2024/01/12 10:06:42;;;;;;;6.72;3.67;;;8.40;60.60;;;;;;5017146;28;20401;-71
2024/01/12 10:09:09;;;;;;;7.35;4.53;;;8.40;60.50;;;;;;5011369;28;20037;-73
2024/01/12 10:11:36;;;;;;;6.68;3.67;;;8.50;60.60;;;;;;4986792;28;20050;-73
2024/01/12 10:14:02;;;;;;;7.50;4.32;;;8.50;60.50;;;;;;5007096;28;20065;-75
2024/01/12 10:16:29;;;;;;;6.07;3.80;;;8.50;60.40;;;;;;5009767;28;20125;-75
2024/01/12 10:19:01;;;;;;;9.15;3.90;;;8.60;60.50;;;;;;5007224;28;20038;-75
2024/01/12 10:21:27;;;;;;;8.05;3.92;;;8.60;60.40;;;;;;5002091;28;20061;-72
2024/01/12 10:24:06;;;;;;;8.73;3.35;;;8.70;60.50;;;;;;5006962;28;20141;-73
2024/01/12 10:26:32;;;;;;;7.50;3.85;;;8.70;60.30;;;;;;5020252;28;20042;-76
2024/01/12 10:29:02;;;;;;;10.00;3.65;;;8.70;60.30;;;;;;5023484;28;20040;-75
2024/01/12 10:31:29;;;;;;;7.03;3.65;;;8.70;60.20;;;;;;5016171;28;20397;-76
2024/01/12 10:34:00;;;;;;;6.55;3.40;;;8.80;60.30;;;;;;5019221;28;20044;-77
2024/01/12 10:36:34;;;;;;;6.30;4.35;;;8.80;60.20;;;;;;5005884;28;20064;-76
2024/01/12 10:39:03;;;;;;;5.88;3.92;;;8.80;60.10;;;;;;5007978;28;20026;-72
2024/01/12 10:41:32;;;;;;;8.82;3.97;;;8.80;60.10;;;;;;5002064;28;20524;-75
2024/01/12 10:44:03;;;;;;;5.93;3.42;;;8.80;60.00;;;;;;5008968;28;20077;-75
2024/01/12 10:46:35;;;;;;;7.38;3.22;;;8.80;59.90;;;;;;5009845;28;20041;-72
2024/01/12 10:49:20;;;;;;;8.05;3.67;;;8.80;59.80;;;;;;5006911;28;20497;-76
2024/01/12 10:52:26;;;;;;;4.75;3.30;;;8.90;59.80;;;;;;5000976;28;20559;-76
2024/01/12 10:55:06;;;;;;;7.07;3.30;;;8.90;59.80;;;;;;5009692;28;20497;-75
2024/01/12 10:57:34;;;;;;;8.68;3.90;;;9.00;60.00;;;;;;4999315;28;20029;-76
2024/01/12 11:00:00;;;;;;;6.47;4.13;;;9.00;60.00;;;;;;5011773;28;20524;-77
2024/01/12 11:02:27;;;;;;;8.48;3.85;;;9.00;59.80;;;;;;5008204;28;20199;-72
2024/01/12 11:04:54;;;;;;;6.57;3.80;;;9.00;59.80;;;;;;5005305;28;20044;-77
2024/01/12 11:07:21;;;;;;;7.82;3.78;;;9.00;59.70;;;;;;5025219;28;20040;-74
2024/01/12 11:09:49;;;;;;;8.30;3.45;;;9.10;59.80;;;;;;5018754;28;20052;-75
2024/01/12 11:12:35;;;;;;;7.68;3.85;;;9.10;59.70;;;;;;5039591;28;20098;-73
2024/01/12 11:15:02;;;;;;;;;;;9.10;59.70;;;;;;5020904;28;20080;-74
2024/01/12 11:17:30;;;;;;;11.55;3.45;;;9.20;59.90;;;;;;5019464;28;19928;-74
2024/01/12 11:20:22;;;;;;;8.88;2.80;;;9.20;59.80;;;;;;5021757;28;20033;-72
2024/01/12 11:22:49;;;;;;;5.77;2.93;;;9.30;60.10;;;;;;5006805;28;20511;-72
2024/01/12 11:25:18;;;;;;;3.88;2.97;;;9.40;60.20;;;;;;5006250;28;20395;-73
2024/01/12 11:27:49;;;;;;;5.80;2.78;;;9.40;60.10;;;;;;4999378;28;20042;-73
2024/01/12 11:30:20;;;;;;;5.45;3.40;;;9.50;60.20;;;;;;5010715;28;20052;-72
2024/01/12 11:32:46;;;;;;;4.40;2.90;;;9.50;60.20;;;;;;5015077;28;20029;-72
2024/01/12 11:35:20;;;;;;;8.52;3.38;;;9.60;60.30;;;;;;5012694;28;20461;-73
2024/01/12 11:38:02;;;;;;;9.13;3.13;;;9.60;60.30;;;;;;5016641;28;20037;-73
2024/01/12 11:40:29;;;;;;;8.37;2.93;;;9.70;60.40;;;;;;5012752;28;20116;-73
2024/01/12 11:42:55;;;;;;;5.55;2.53;;;9.70;60.40;;;;;;5014805;28;20091;-74
2024/01/12 11:45:22;;;;;;;5.38;2.60;;;9.80;60.50;;;;;;5007227;28;20041;-73
2024/01/12 11:47:48;;;;;;;7.03;3.17;;;9.80;60.40;;;;;;5004204;28;20049;-73
2024/01/12 11:50:15;;;;;;;7.63;2.40;;;9.90;60.60;;;;;;5006722;28;20578;-74
2024/01/12 11:52:42;;;;;;;8.32;3.85;;;9.90;60.50;;;;;;5010165;28;20391;-72
2024/01/12 11:55:10;;;;;;;6.63;2.75;;;9.90;60.90;;;;;;5017782;28;20052;-74
2024/01/12 11:57:37;;;;;;;4.82;2.35;;;10.00;60.70;;;;;;5009063;28;20202;-73
2024/01/12 12:00:09;;;;;;;6.00;2.53;;;10.00;60.60;;;;;;5002764;28;20108;-73
2024/01/12 12:02:36;;;;;;;4.63;2.40;;;10.10;60.70;;;;;;5012503;28;20037;-72
2024/01/12 12:05:09;;;;;;;5.40;3.42;;;10.10;60.70;;;;;;5004736;28;20059;-74
2024/01/12 12:07:40;;;;;;;5.82;2.72;;;10.10;60.60;;;;;;5014253;28;20384;-74
2024/01/12 12:10:10;;;;;;;8.30;3.38;;;10.20;60.70;;;;;;5018844;28;20447;-73
2024/01/12 12:12:36;;;;;;;4.70;2.85;;;10.20;60.70;;;;;;5000616;28;20496;-75
2024/01/12 12:15:07;;;;;;;4.28;3.00;;;10.30;60.70;;;;;;5012603;28;20484;-73
2024/01/12 12:17:54;;;;;;;4.13;2.33;;;10.30;60.90;;;;;;5018714;28;20541;-73
2024/01/12 12:20:20;;;;;;;4.97;2.17;;;10.40;61.50;;;;;;5008620;28;20120;-73
2024/01/12 12:22:46;;;;;;;5.13;2.35;;;10.60;61.70;;;;;;5022356;28;20092;-72
2024/01/12 12:25:14;;;;;;;4.70;2.58;;;10.90;62.10;;;;;;5007533;28;20063;-74
2024/01/12 12:27:41;;;;;;;4.65;2.17;;;11.00;62.00;;;;;;5024378;28;20592;-73
2024/01/12 12:30:09;;;;;;;5.25;2.58;;;11.30;62.20;;;;;;5016705;28;20053;-74
2024/01/12 12:32:34;;;;;;;5.20;2.30;;;11.50;62.10;;;;;;5012502;28;20033;-73
2024/01/12 12:35:13;;;;;;;6.22;2.70;;;11.70;62.10;;;;;;5006738;28;20030;-73
2024/01/12 12:37:40;;;;;;;3.70;1.90;;;11.80;61.90;;;;;;5038418;28;20037;-74
2024/01/12 12:40:09;;;;;;;8.68;2.53;;;12.00;61.90;;;;;;5010111;28;20463;-73
2024/01/12 12:42:35;;;;;;;3.25;1.98;;;12.10;62.30;;;;;;4998717;28;20496;-73
2024/01/12 12:45:02;;;;;;;3.80;2.42;;;12.30;61.80;;;;;;5011131;28;20414;-73
2024/01/12 12:47:28;;;;;;;3.10;2.05;;;12.40;61.60;;;;;;5020233;28;20033;-76
2024/01/12 12:49:54;;;;;;;3.13;2.15;;;12.50;61.50;;;;;;5010264;28;20045;-75
2024/01/12 12:52:21;;;;;;;3.00;2.30;;;12.60;61.40;;;;;;5003370;28;20520;-73
2024/01/12 12:54:47;;;;;;;5.47;2.83;;;12.70;61.30;;;;;;5024144;28;20034;-74
2024/01/12 12:57:14;;;;;;;6.20;2.55;;;12.80;61.30;;;;;;5008379;28;20029;-76